Terminal Aerodrome Forecast
Issued by NWS Detroit/Pontiac, MI

Home | Current Version | Previous Version | Text Only | Print | Product List | Glossary On
Versions: 1 2 3 4 5 6 7 8 9 10 11 12 13 14 15 16 17 18 19 20 21 22 23 24 25 26
000
FTUS43 KDTX 142338
TAFFNT
TAF
KFNT 142338Z 1500/1524 29008KT 5SM BR OVC010
     FM150400 26012KT P6SM OVC012
      TEMPO 1506/1510 3SM -SHSN OVC007
     FM151100 27012KT P6SM SCT015 OVC025
     FM151800 26010KT P6SM BKN035=

USA.gov is the U.S. government's official web portal to all federal, state and local government web resources and services.